SBOSBO YYT / CYYT
Speedbird OnlineSpeedbird Online YYT / CYYT

St. John's International Airport
10:25 -0.5°C

Location St. John's, Canada
Latitude: 47.618598938
Longitude: -52.7518997192
Web Airport Website | Wikipedia
Altitude 141 Meter / 461 Feet
Distance 3,755 KM / 2,333 Miles
from London.
Time Zone UTC -3.5 hours (America/St_Johns)
Codes IATA: YYT
ICAO: CYYT
Currency £1 equals CAD 1.65
Runways
RunwayLength (m)Surface
021533Asphalt
112591Asphalt
162135Asphalt
201533Asphalt
292591Asphalt
342135Asphalt
Radio
TypeDescriptionFrequency
ATISATIS128
CNTRGANDER CNTR133.15
FBOShell123
GNDGND121.9
RCOHALIFAX RDO123.275
TWRTWR120.6
Live ATC
METAR CYYT 311300Z 24004KT 10SM BKN010 BKN014 BKN018 M01/M01 A2997 RMK SF5SC1SC1 SLP159
TAF TAF AMD CYYT 311256Z 3112/0112 29005KT 2SM BR BKN003 OVC015 BECMG 3112/3114 6SM -SN BR OVC012 FM311400 29006KT 6SM -SN BR OVC012 TEMPO 3114/3118 P6SM NSW SCT012 OVC025 PROB30 3114/3116 2SM BR OVC008 FM311800 29010KT P6SM -SN BKN015 BKN025 TEMPO 3118/3122 P6SM NSW SCT025 BKN060 FM312200 16007KT 2SM -SN SCT005 OVC015 FM010100 09007KT 3/4SM -SN OVC005 BECMG 0104/0106 32015G25KT FM010600 32015G25KT 2SM -SHSN SCT008 OVC012 PROB30 0106/0110 3/4SM -FZDZ BR FM011000 32022G32KT 6SM -SN BKN015 RMK NXT FCST BY 311800Z
Weather As Of 31 Jan 2023 10:25
Description Light snow
Wind 7 km/h from South-West (240°)
Cloud Cover 75%
Precipitation Rain: none, Snow: none
Sunrise 07:29
Sunset 16:59



Support Speedbird Online

© 2017-2023 Speedbird Online